Archival Weather

NSFA McMurdo Sound

NSFA McMurdo Sound, Antarctica (NZCM)

Report from: Friday, September 23, 2022 8:54 AM UTC
Current time: Sunday, December 4, 2022 12:10 PM UTC

Current weather
Weather history
Weather forecast

Present weatherLight snow, mist
Temperature-20.4°C (-4.7°F)
Wind chill-33.0°C (-27.4°F)
Dew point-24.4°C (-11.9°F)
Winds 16 kts (8.2 m/s, 18.4 mph) Southeast (130°)
Wind gusts 25 kts (12.9 m/s, 28.8 mph)
Peak wind 29 kts (14.9 m/s, 33.4 mph) East-Southeast (120°) at 03:11
Visibility1.2 mi. (1.9 km)
Clouds Ceiling: Overcast 1,400 ft. (427 m)
Altimeter28.66 in.Hg (971 mB)
Precip. events Snow ended 8:18 AM
Snow began 8:25 AM
Snow ended 8:38 AM
Snow began 8:42 AM
Snow ended 8:52 AM
Snow began 8:54 AM
Relative humidity70 %
Density altitude-3,009 ft. (-917 m)
Sea-level pressure107.1 kPa (1071 mB, 31.63 in.Hg)
Remarks Fully automated report
System requires maintenance
Special weather observation
Automated weather observing station with precipitation discriminator
Flight conditions Instrument Meteorological Conditions
Raw dataSPECI NZCM 230854Z AUTO 13016G25KT 1900 -SN BR OVC014 M20/M24 A2866 RMK AO2 PK WND 12029/0811 SNE0818B0825E0838B0842E0852B0854 SLP712 T12041244 $
An error has occurred. This application may no longer respond until reloaded. Reload 🗙